Terminal Aerodrome Forecast
Issued by NWS

Home | Current Version | Previous Version | Text Only | Print | Product List | Glossary On
Versions: 1 2 3 4 5 6 7 8 9 10 11 12 13 14 15 16 17 18 19
000
FTUS46 KMTR 272300
TAFSNS
TAF
KSNS 272320Z 2800/2824 28016G22KT P6SM SCT015
     FM280200 28010KT P6SM BKN010
     FM280500 29004KT 4SM BR OVC004
     FM281400 29005KT P6SM BKN010
     FM281600 29008KT P6SM SKC
     FM281900 29015KT P6SM SKC=

USA.gov is the U.S. government's official web portal to all federal, state and local government web resources and services.